Time;durP1;ratioP1;P1;durP2;ratioP2;P2;SDS_P1;SDS_P2;PMS_P1;PMS_P2;Temp;Humidity;BMP_temperature;BMP_pressure;BME280_temperature;BME280_humidity;BME280_pressure;Samples;Min_cycle;Max_cycle;Signal;HPM_P1;HPM_P2
2023/10/23 00:02:13;;;;;;;0.00;0.00;;;6.50;100.00;;;;;;4969157;28;20089;-77
2023/10/23 00:04:40;;;;;;;0.00;0.00;;;6.40;100.00;;;;;;4973576;28;20096;-78
2023/10/23 00:07:10;;;;;;;0.00;0.00;;;6.40;100.00;;;;;;4973224;28;20844;-77
2023/10/23 00:09:41;;;;;;;0.00;0.00;;;6.40;100.00;;;;;;4980337;28;20752;-77
2023/10/23 00:12:10;;;;;;;0.00;0.00;;;6.30;100.00;;;;;;4975250;28;20050;-77
2023/10/23 00:14:39;;;;;;;0.00;0.00;;;6.30;100.00;;;;;;4971576;28;20058;-77
2023/10/23 00:17:08;;;;;;;0.00;0.00;;;6.30;100.00;;;;;;4968744;28;20055;-77
2023/10/23 00:19:36;;;;;;;0.00;0.00;;;6.20;100.00;;;;;;4979806;28;20149;-77
2023/10/23 00:22:04;;;;;;;0.00;0.00;;;6.20;100.00;;;;;;4971709;28;20467;-77
2023/10/23 00:24:33;;;;;;;0.00;0.00;;;6.20;100.00;;;;;;4974435;28;20074;-77
2023/10/23 00:27:01;;;;;;;0.00;0.00;;;6.20;100.00;;;;;;4979681;28;20077;-77
2023/10/23 00:29:29;;;;;;;0.00;0.00;;;6.10;100.00;;;;;;4972324;28;20056;-77
2023/10/23 00:31:59;;;;;;;0.00;0.00;;;6.10;100.00;;;;;;4974533;28;20050;-77
2023/10/23 00:34:26;;;;;;;0.00;0.00;;;6.10;100.00;;;;;;4983446;28;20054;-77
2023/10/23 00:36:55;;;;;;;0.00;0.00;;;6.10;100.00;;;;;;4980133;28;20058;-77
2023/10/23 00:39:24;;;;;;;0.00;0.00;;;6.10;100.00;;;;;;4971415;28;20133;-77
2023/10/23 00:41:53;;;;;;;0.00;0.00;;;6.00;100.00;;;;;;4986327;28;20475;-77
2023/10/23 00:44:22;;;;;;;0.00;0.00;;;6.00;100.00;;;;;;4971161;28;20077;-77
2023/10/23 00:46:51;;;;;;;0.00;0.00;;;6.00;100.00;;;;;;4974965;28;20101;-77
2023/10/23 00:49:21;;;;;;;0.00;0.00;;;6.00;100.00;;;;;;4976237;28;20046;-78
2023/10/23 00:51:49;;;;;;;0.00;0.00;;;6.00;100.00;;;;;;4971882;28;20077;-72
2023/10/23 00:54:16;;;;;;;0.00;0.00;;;6.00;100.00;;;;;;4978456;28;20562;-71
2023/10/23 00:56:45;;;;;;;0.00;0.00;;;6.00;100.00;;;;;;4970322;28;20050;-72
2023/10/23 00:59:12;;;;;;;0.00;0.00;;;6.00;100.00;;;;;;4972014;28;20046;-72
2023/10/23 01:01:43;;;;;;;0.00;0.00;;;6.00;100.00;;;;;;4966346;28;20047;-72
2023/10/23 01:04:11;;;;;;;0.00;0.00;;;5.90;100.00;;;;;;4984392;28;20061;-71
2023/10/23 01:06:39;;;;;;;0.00;0.00;;;5.90;100.00;;;;;;4968359;28;20121;-71
2023/10/23 01:09:06;;;;;;;0.00;0.00;;;5.90;100.00;;;;;;4975761;28;20109;-71
2023/10/23 01:11:33;;;;;;;0.00;0.00;;;5.90;100.00;;;;;;4966537;28;20078;-71
2023/10/23 01:14:00;;;;;;;0.00;0.00;;;5.90;100.00;;;;;;4965652;28;20058;-71
2023/10/23 01:16:27;;;;;;;0.00;0.00;;;6.00;100.00;;;;;;4965902;28;20132;-71
2023/10/23 01:18:54;;;;;;;0.00;0.00;;;5.90;100.00;;;;;;4967164;28;20870;-72
2023/10/23 01:21:21;;;;;;;0.00;0.00;;;5.90;100.00;;;;;;4966590;28;20043;-72
2023/10/23 01:23:50;;;;;;;0.00;0.00;;;5.90;100.00;;;;;;4993029;28;21097;-71
2023/10/23 01:26:17;;;;;;;0.00;0.00;;;5.80;100.00;;;;;;4964775;28;20058;-71
2023/10/23 01:28:44;;;;;;;0.00;0.00;;;5.80;100.00;;;;;;4974350;28;20070;-71
2023/10/23 01:31:12;;;;;;;0.00;0.00;;;5.80;100.00;;;;;;4969363;28;20463;-72
2023/10/23 01:33:40;;;;;;;0.00;0.00;;;5.70;100.00;;;;;;4967087;28;20611;-71
2023/10/23 01:36:08;;;;;;;0.00;0.00;;;5.70;100.00;;;;;;4981507;28;20166;-71
2023/10/23 01:38:35;;;;;;;0.00;0.00;;;5.70;100.00;;;;;;4984826;28;20049;-72
2023/10/23 01:41:03;;;;;;;0.00;0.00;;;5.70;100.00;;;;;;4982205;28;20058;-72
2023/10/23 01:43:31;;;;;;;0.00;0.00;;;5.70;100.00;;;;;;4984962;28;20054;-72
2023/10/23 01:45:59;;;;;;;0.00;0.00;;;5.60;100.00;;;;;;4976486;28;20706;-72
2023/10/23 01:48:28;;;;;;;0.00;0.00;;;5.60;100.00;;;;;;4968430;28;20051;-71
2023/10/23 01:50:59;;;;;;;0.00;0.00;;;5.60;100.00;;;;;;4971264;28;20054;-72
2023/10/23 01:53:27;;;;;;;0.00;0.00;;;5.60;100.00;;;;;;4968896;28;20479;-72
2023/10/23 01:55:54;;;;;;;0.00;0.00;;;5.50;100.00;;;;;;4975798;28;20059;-71
2023/10/23 01:58:21;;;;;;;0.00;0.00;;;5.50;100.00;;;;;;4974755;28;20074;-71
2023/10/23 02:00:48;;;;;;;0.00;0.00;;;5.50;100.00;;;;;;4985151;28;20078;-71
2023/10/23 02:03:17;;;;;;;0.00;0.00;;;5.50;100.00;;;;;;4973414;28;20049;-72
2023/10/23 02:05:47;;;;;;;0.00;0.00;;;5.50;100.00;;;;;;4990461;28;20050;-71
2023/10/23 02:08:16;;;;;;;0.00;0.00;;;5.40;100.00;;;;;;4972434;28;20500;-71
2023/10/23 02:10:44;;;;;;;0.00;0.00;;;5.50;100.00;;;;;;4974436;28;20062;-72
2023/10/23 02:13:12;;;;;;;0.00;0.00;;;5.50;100.00;;;;;;4977754;28;20149;-71
2023/10/23 02:15:39;;;;;;;0.00;0.00;;;5.50;100.00;;;;;;4976336;28;20137;-71
2023/10/23 02:18:07;;;;;;;0.00;0.00;;;5.50;100.00;;;;;;4979485;28;20054;-71
2023/10/23 02:20:34;;;;;;;0.00;0.00;;;5.40;100.00;;;;;;4974119;28;20141;-71
2023/10/23 02:23:02;;;;;;;0.00;0.00;;;5.40;100.00;;;;;;4981375;28;20050;-71
2023/10/23 02:25:29;;;;;;;0.00;0.00;;;5.40;100.00;;;;;;4975565;28;20053;-78
2023/10/23 02:27:56;;;;;;;0.00;0.00;;;5.30;100.00;;;;;;4991996;28;20588;-78
2023/10/23 02:30:23;;;;;;;0.00;0.00;;;5.30;100.00;;;;;;4982824;28;20747;-77
2023/10/23 02:32:50;;;;;;;0.00;0.00;;;5.20;100.00;;;;;;4975955;28;21127;-78
2023/10/23 02:35:18;;;;;;;0.00;0.00;;;5.20;100.00;;;;;;4970489;28;20051;-78
2023/10/23 02:37:49;;;;;;;0.00;0.00;;;5.20;100.00;;;;;;4972453;28;20047;-77
2023/10/23 02:40:16;;;;;;;0.00;0.00;;;5.20;100.00;;;;;;4980666;28;20485;-78
2023/10/23 02:42:44;;;;;;;0.00;0.00;;;5.20;100.00;;;;;;4972247;28;20112;-77
2023/10/23 02:45:15;;;;;;;0.00;0.00;;;5.20;100.00;;;;;;4973877;28;20058;-77
2023/10/23 02:47:43;;;;;;;0.00;0.00;;;5.30;100.00;;;;;;4976758;28;20086;-77
2023/10/23 02:50:11;;;;;;;0.00;0.00;;;5.30;100.00;;;;;;4973049;28;20062;-77
2023/10/23 02:52:38;;;;;;;0.00;0.00;;;5.30;100.00;;;;;;4975821;28;20062;-77
2023/10/23 02:55:06;;;;;;;0.00;0.00;;;5.20;100.00;;;;;;4976781;28;20059;-77
2023/10/23 02:57:34;;;;;;;0.00;0.00;;;5.20;100.00;;;;;;4983777;28;20141;-77
2023/10/23 03:00:01;;;;;;;0.00;0.00;;;5.10;100.00;;;;;;4990685;28;20137;-72
2023/10/23 03:02:29;;;;;;;0.00;0.00;;;5.10;100.00;;;;;;4980636;28;20050;-71
2023/10/23 03:04:56;;;;;;;0.00;0.00;;;5.10;100.00;;;;;;4977533;28;20597;-71
2023/10/23 03:07:26;;;;;;;0.00;0.00;;;5.10;100.00;;;;;;4979480;28;20100;-72
2023/10/23 03:09:56;;;;;;;0.00;0.00;;;5.10;100.00;;;;;;4984453;28;20050;-71
2023/10/23 03:12:24;;;;;;;0.00;0.00;;;5.00;100.00;;;;;;4988061;28;20074;-71
2023/10/23 03:14:54;;;;;;;0.00;0.00;;;5.00;100.00;;;;;;4978411;28;20077;-71
2023/10/23 03:17:21;;;;;;;0.00;0.00;;;5.00;100.00;;;;;;4978948;28;20137;-71
2023/10/23 03:19:48;;;;;;;0.00;0.00;;;4.90;100.00;;;;;;4971314;28;20138;-71
2023/10/23 03:22:16;;;;;;;0.00;0.00;;;4.90;100.00;;;;;;4981883;28;20058;-71
2023/10/23 03:24:44;;;;;;;0.00;0.00;;;4.90;100.00;;;;;;4972797;28;20055;-71
2023/10/23 03:27:11;;;;;;;0.00;0.00;;;4.80;100.00;;;;;;4979187;28;20064;-71
2023/10/23 03:29:42;;;;;;;0.00;0.00;;;4.80;100.00;;;;;;4972939;28;20101;-72
2023/10/23 03:32:10;;;;;;;0.00;0.00;;;4.80;100.00;;;;;;4989098;28;20165;-71
2023/10/23 03:34:37;;;;;;;0.00;0.00;;;4.70;100.00;;;;;;4969864;28;20093;-72
2023/10/23 03:37:05;;;;;;;0.00;0.00;;;4.70;100.00;;;;;;4972234;28;20082;-71
2023/10/23 03:39:33;;;;;;;0.00;0.00;;;4.70;100.00;;;;;;4980285;28;21097;-71
2023/10/23 03:42:05;;;;;;;0.00;0.00;;;4.70;100.00;;;;;;4978805;28;20146;-71
2023/10/23 03:44:32;;;;;;;0.00;0.00;;;4.70;100.00;;;;;;4982538;28;20054;-72
2023/10/23 03:47:00;;;;;;;0.00;0.00;;;4.70;100.00;;;;;;4972554;28;20051;-71
2023/10/23 03:49:31;;;;;;;0.00;0.00;;;4.70;100.00;;;;;;4983620;28;20081;-71
2023/10/23 03:51:58;;;;;;;0.00;0.00;;;4.70;100.00;;;;;;4972948;28;20105;-71
2023/10/23 03:54:25;;;;;;;0.00;0.00;;;4.70;100.00;;;;;;4982105;28;20101;-71
2023/10/23 03:56:53;;;;;;;0.00;0.00;;;4.70;100.00;;;;;;4986679;28;20042;-71
2023/10/23 03:59:20;;;;;;;0.00;0.00;;;4.80;100.00;;;;;;4979501;28;20136;-71
2023/10/23 04:01:48;;;;;;;0.00;0.00;;;4.90;100.00;;;;;;4973626;28;20086;-71
2023/10/23 04:04:15;;;;;;;0.00;0.00;;;4.80;100.00;;;;;;4972024;28;20046;-71
2023/10/23 04:06:42;;;;;;;0.00;0.00;;;4.80;100.00;;;;;;4981442;28;20046;-71
2023/10/23 04:09:09;;;;;;;0.00;0.00;;;4.80;100.00;;;;;;4984940;28;20254;-71
2023/10/23 04:11:37;;;;;;;0.00;0.00;;;4.80;100.00;;;;;;4978640;28;20070;-71
2023/10/23 04:14:07;;;;;;;0.00;0.00;;;4.80;100.00;;;;;;4979337;28;20155;-70
2023/10/23 04:16:34;;;;;;;0.00;0.00;;;4.80;100.00;;;;;;4968536;28;20172;-69
2023/10/23 04:19:03;;;;;;;0.00;0.00;;;4.80;100.00;;;;;;4982446;28;20046;-69
2023/10/23 04:21:31;;;;;;;0.00;0.00;;;4.80;100.00;;;;;;4983223;28;20050;-69
2023/10/23 04:23:59;;;;;;;0.00;0.00;;;4.90;100.00;;;;;;4976261;28;20078;-69
2023/10/23 04:26:25;;;;;;;0.00;0.00;;;5.00;100.00;;;;;;4978371;28;20081;-69
2023/10/23 04:28:54;;;;;;;0.00;0.00;;;5.10;100.00;;;;;;4988176;23;20078;-71
2023/10/23 04:31:24;;;;;;;0.00;0.00;;;5.20;100.00;;;;;;4975623;28;20053;-71
2023/10/23 04:33:52;;;;;;;0.00;0.00;;;5.20;100.00;;;;;;4977680;28;20763;-71
2023/10/23 04:36:19;;;;;;;0.00;0.00;;;5.20;100.00;;;;;;4996984;28;20625;-71
2023/10/23 04:38:47;;;;;;;0.00;0.00;;;5.10;100.00;;;;;;4974116;28;20491;-72
2023/10/23 04:41:19;;;;;;;0.00;0.00;;;5.10;100.00;;;;;;4978441;28;20084;-72
2023/10/23 04:43:46;;;;;;;0.00;0.00;;;5.10;100.00;;;;;;4978441;28;20554;-73
2023/10/23 04:46:13;;;;;;;0.00;0.00;;;5.10;100.00;;;;;;5001061;28;20054;-73
2023/10/23 04:48:42;;;;;;;0.00;0.00;;;5.10;100.00;;;;;;4996651;28;20072;-75
2023/10/23 04:51:09;;;;;;;0.00;0.00;;;5.30;100.00;;;;;;4998718;28;20106;-74
2023/10/23 04:53:36;;;;;;;0.00;0.00;;;5.30;100.00;;;;;;4993805;28;20042;-74
2023/10/23 04:56:05;;;;;;;0.00;0.00;;;5.40;100.00;;;;;;4997820;28;20089;-87
2023/10/23 04:58:32;;;;;;;0.00;0.00;;;5.50;100.00;;;;;;4994319;28;20053;-74
2023/10/23 05:00:59;;;;;;;0.00;0.00;;;5.50;100.00;;;;;;4995793;28;20041;-80
2023/10/23 05:03:26;;;;;;;0.00;0.00;;;5.40;100.00;;;;;;4995577;28;20519;-74
2023/10/23 05:05:53;;;;;;;0.00;0.00;;;5.40;100.00;;;;;;4976528;28;20744;-74
2023/10/23 05:08:20;;;;;;;0.00;0.00;;;5.40;100.00;;;;;;4998531;28;20650;-74
2023/10/23 05:14:06;;;;;;;0.00;0.00;;;5.40;100.00;;;;;;4977007;28;20065;-75
2023/10/23 05:16:33;;;;;;;0.00;0.00;;;5.40;100.00;;;;;;4982575;28;20051;-74
2023/10/23 05:19:00;;;;;;;0.00;0.00;;;5.40;100.00;;;;;;4984674;28;20054;-76
2023/10/23 05:21:27;;;;;;;0.00;0.00;;;5.40;100.00;;;;;;4989560;28;20104;-74
2023/10/23 05:23:54;;;;;;;0.00;0.00;;;5.40;100.00;;;;;;4971187;28;20055;-74
2023/10/23 05:26:21;;;;;;;0.00;0.00;;;5.40;100.00;;;;;;4969679;28;20050;-74
2023/10/23 05:28:51;;;;;;;0.00;0.00;;;5.40;100.00;;;;;;4968541;28;20046;-75
2023/10/23 05:31:18;;;;;;;0.00;0.00;;;5.30;100.00;;;;;;4986827;28;20043;-75
2023/10/23 05:33:45;;;;;;;0.00;0.00;;;5.40;100.00;;;;;;4986316;28;20082;-75
2023/10/23 05:36:12;;;;;;;0.00;0.00;;;5.40;100.00;;;;;;4979340;28;20046;-75
2023/10/23 05:38:39;;;;;;;0.00;0.00;;;5.40;100.00;;;;;;4986185;28;20730;-75
2023/10/23 05:41:07;;;;;;;0.00;0.00;;;5.40;100.00;;;;;;4988253;28;20054;-75
2023/10/23 05:43:35;;;;;;;0.00;0.00;;;5.40;100.00;;;;;;4987283;28;20050;-75
2023/10/23 05:46:03;;;;;;;0.00;0.00;;;5.30;100.00;;;;;;4981755;28;20152;-75
2023/10/23 05:48:31;;;;;;;0.00;0.00;;;5.40;100.00;;;;;;4993064;28;20065;-70
2023/10/23 05:51:00;;;;;;;0.00;0.00;;;5.40;100.00;;;;;;4988327;28;20058;-70
2023/10/23 05:53:28;;;;;;;0.00;0.00;;;5.40;100.00;;;;;;4984666;28;20057;-70
2023/10/23 05:56:03;;;;;;;0.00;0.00;;;5.40;100.00;;;;;;4982705;28;20058;-70
2023/10/23 05:58:33;;;;;;;0.00;0.00;;;5.40;100.00;;;;;;4981216;28;20794;-70
2023/10/23 06:01:09;;;;;;;0.00;0.00;;;5.40;100.00;;;;;;4984336;28;20132;-70
2023/10/23 06:03:37;;;;;;;0.00;0.00;;;5.30;100.00;;;;;;4984415;28;20101;-70
2023/10/23 06:06:05;;;;;;;0.00;0.00;;;5.30;100.00;;;;;;4985437;28;20050;-70
2023/10/23 06:08:34;;;;;;;0.00;0.00;;;5.30;100.00;;;;;;4966933;28;20066;-70
2023/10/23 06:11:06;;;;;;;0.00;0.00;;;5.30;100.00;;;;;;4966509;28;20546;-70
2023/10/23 06:13:33;;;;;;;0.00;0.00;;;5.30;100.00;;;;;;4968072;28;20054;-70
2023/10/23 06:16:04;;;;;;;0.00;0.00;;;5.30;100.00;;;;;;4985036;28;20067;-70
2023/10/23 06:18:36;;;;;;;0.00;0.00;;;5.30;100.00;;;;;;4989072;28;20046;-70
2023/10/23 06:21:05;;;;;;;0.00;0.00;;;5.30;100.00;;;;;;4968891;28;20078;-70
2023/10/23 06:23:38;;;;;;;0.00;0.00;;;5.30;100.00;;;;;;4985310;28;20042;-70
2023/10/23 06:26:08;;;;;;;0.00;0.00;;;5.30;100.00;;;;;;4985631;28;20057;-70
2023/10/23 06:28:37;;;;;;;0.00;0.00;;;5.30;100.00;;;;;;4986179;28;20505;-70
2023/10/23 06:31:09;;;;;;;0.00;0.00;;;5.40;100.00;;;;;;4985922;28;20486;-70
2023/10/23 06:33:43;;;;;;;0.00;0.00;;;5.40;100.00;;;;;;4985259;28;20065;-70
2023/10/23 06:36:12;;;;;;;0.00;0.00;;;5.40;100.00;;;;;;4985817;28;20097;-70
2023/10/23 06:38:41;;;;;;;0.00;0.00;;;5.40;100.00;;;;;;4969731;28;20061;-70
2023/10/23 06:41:08;;;;;;;0.00;0.00;;;5.40;100.00;;;;;;4984556;28;20124;-70
2023/10/23 06:43:37;;;;;;;0.00;0.00;;;5.50;100.00;;;;;;4984553;28;20049;-70
2023/10/23 06:46:04;;;;;;;0.00;0.00;;;5.60;100.00;;;;;;4978128;28;20054;-75
2023/10/23 06:48:32;;;;;;;0.00;0.00;;;5.60;100.00;;;;;;4970972;28;20046;-75
2023/10/23 06:51:02;;;;;;;0.00;0.00;;;5.60;100.00;;;;;;4989586;28;20539;-75
2023/10/23 06:53:29;;;;;;;0.00;0.00;;;5.60;100.00;;;;;;4978395;28;20050;-75
2023/10/23 06:55:56;;;;;;;0.00;0.00;;;5.60;100.00;;;;;;4986965;28;20058;-76
2023/10/23 06:58:24;;;;;;;0.00;0.00;;;5.60;100.00;;;;;;4979859;28;20132;-76
2023/10/23 07:00:51;;;;;;;0.00;0.00;;;5.70;100.00;;;;;;4992662;28;20168;-75
2023/10/23 07:03:18;;;;;;;0.00;0.00;;;5.80;100.00;;;;;;4995044;28;20200;-75
2023/10/23 07:05:45;;;;;;;0.00;0.00;;;5.80;100.00;;;;;;4993569;28;20058;-75
2023/10/23 07:08:13;;;;;;;0.00;0.00;;;5.90;100.00;;;;;;4990873;28;20049;-75
2023/10/23 07:10:40;;;;;;;0.00;0.00;;;5.90;100.00;;;;;;4985097;28;20058;-75
2023/10/23 07:13:07;;;;;;;0.00;0.00;;;6.00;100.00;;;;;;4990269;28;20065;-75
2023/10/23 07:15:51;;;;;;;0.20;0.20;;;6.10;100.00;;;;;;4984947;28;20054;-75
2023/10/23 07:18:21;;;;;;;0.00;0.00;;;6.10;100.00;;;;;;4980802;28;20050;-76
2023/10/23 07:20:57;;;;;;;0.00;0.00;;;6.20;100.00;;;;;;4968514;28;20052;-76
2023/10/23 07:23:24;;;;;;;0.00;0.00;;;6.30;100.00;;;;;;4987942;28;20435;-75
2023/10/23 07:26:12;;;;;;;0.00;0.00;;;6.40;100.00;;;;;;4963313;28;20068;-75
2023/10/23 07:28:41;;;;;;;0.00;0.00;;;6.50;100.00;;;;;;4972686;28;20109;-75
2023/10/23 07:31:10;;;;;;;0.00;0.00;;;6.50;100.00;;;;;;4968844;28;20061;-74
2023/10/23 07:33:37;;;;;;;0.00;0.00;;;6.60;100.00;;;;;;4986952;28;20054;-74
2023/10/23 07:36:06;;;;;;;0.00;0.00;;;6.60;100.00;;;;;;4985848;28;20116;-73
2023/10/23 07:38:35;;;;;;;0.00;0.00;;;6.60;100.00;;;;;;4976455;28;20085;-73
2023/10/23 07:41:02;;;;;;;0.00;0.00;;;6.70;100.00;;;;;;4966515;28;20042;-74
2023/10/23 07:43:29;;;;;;;0.00;0.00;;;6.80;100.00;;;;;;4986836;28;20046;-74
2023/10/23 07:45:57;;;;;;;0.00;0.00;;;6.90;100.00;;;;;;4987081;28;20132;-74
2023/10/23 07:48:27;;;;;;;0.00;0.00;;;7.00;100.00;;;;;;4984807;28;20514;-74
2023/10/23 07:50:57;;;;;;;0.00;0.00;;;7.00;100.00;;;;;;4992309;28;20061;-73
2023/10/23 07:53:25;;;;;;;0.00;0.00;;;7.10;100.00;;;;;;4987021;28;20103;-73
2023/10/23 07:55:52;;;;;;;0.00;0.00;;;7.20;100.00;;;;;;4980424;28;20065;-73
2023/10/23 07:58:19;;;;;;;0.00;0.00;;;7.20;100.00;;;;;;4984751;28;20137;-73
2023/10/23 08:00:46;;;;;;;0.00;0.00;;;7.30;100.00;;;;;;4984931;28;20050;-74
2023/10/23 08:03:13;;;;;;;0.00;0.00;;;7.40;100.00;;;;;;4986516;28;20078;-74
2023/10/23 08:05:40;;;;;;;0.00;0.00;;;7.50;100.00;;;;;;4970337;28;20074;-73
2023/10/23 08:08:07;;;;;;;0.00;0.00;;;7.50;100.00;;;;;;4980126;28;20050;-74
2023/10/23 08:10:34;;;;;;;0.00;0.00;;;7.60;100.00;;;;;;4982942;28;20100;-75
2023/10/23 08:13:01;;;;;;;0.00;0.00;;;7.70;100.00;;;;;;4980234;28;20063;-75
2023/10/23 08:15:28;;;;;;;0.00;0.00;;;7.70;100.00;;;;;;4992898;28;20054;-75
2023/10/23 08:17:55;;;;;;;0.00;0.00;;;7.80;100.00;;;;;;4992681;28;20050;-74
2023/10/23 08:20:23;;;;;;;0.00;0.00;;;7.90;100.00;;;;;;4966562;28;20050;-74
2023/10/23 08:22:50;;;;;;;0.00;0.00;;;7.90;100.00;;;;;;4988972;28;20057;-74
2023/10/23 08:25:16;;;;;;;0.00;0.00;;;8.00;100.00;;;;;;4981718;28;20166;-74
2023/10/23 08:27:43;;;;;;;0.00;0.00;;;8.00;100.00;;;;;;4979555;28;20066;-74
2023/10/23 08:30:11;;;;;;;0.00;0.00;;;8.10;100.00;;;;;;4984904;28;20069;-74
2023/10/23 08:32:38;;;;;;;0.00;0.00;;;8.10;100.00;;;;;;4984652;28;20058;-74
2023/10/23 08:35:19;;;;;;;0.00;0.00;;;8.20;100.00;;;;;;4987780;28;20500;-74
2023/10/23 08:37:46;;;;;;;0.00;0.00;;;8.30;100.00;;;;;;4986499;28;20478;-74
2023/10/23 08:40:13;;;;;;;0.00;0.00;;;8.40;100.00;;;;;;4980391;28;20058;-74
2023/10/23 08:42:40;;;;;;;0.00;0.00;;;8.40;100.00;;;;;;4985424;28;20049;-74
2023/10/23 08:45:07;;;;;;;0.00;0.00;;;8.40;100.00;;;;;;4972946;28;20055;-74
2023/10/23 08:47:34;;;;;;;0.00;0.00;;;8.40;100.00;;;;;;4989405;28;20686;-70
2023/10/23 08:50:03;;;;;;;0.00;0.00;;;8.50;100.00;;;;;;4983333;28;20068;-70
2023/10/23 08:52:38;;;;;;;0.00;0.00;;;8.50;100.00;;;;;;4984997;28;20870;-70
2023/10/23 08:55:11;;;;;;;0.00;0.00;;;8.60;100.00;;;;;;4983163;28;20419;-70
2023/10/23 08:57:41;;;;;;;0.00;0.00;;;8.60;100.00;;;;;;4979615;28;20050;-70
2023/10/23 09:00:08;;;;;;;0.00;0.00;;;8.70;100.00;;;;;;4988508;28;20049;-70
2023/10/23 09:02:35;;;;;;;0.00;0.00;;;8.80;100.00;;;;;;4983059;28;20077;-70
2023/10/23 09:05:18;;;;;;;0.00;0.00;;;8.90;100.00;;;;;;4981589;28;20054;-70
2023/10/23 09:07:48;;;;;;;0.30;0.30;;;9.00;100.00;;;;;;4986698;28;20050;-70
2023/10/23 09:10:15;;;;;;;0.00;0.00;;;9.10;100.00;;;;;;4984812;28;20054;-70
2023/10/23 09:12:43;;;;;;;0.00;0.00;;;9.10;100.00;;;;;;4966767;28;20439;-70
2023/10/23 09:15:21;;;;;;;0.00;0.00;;;9.20;100.00;;;;;;4985294;28;20056;-70
2023/10/23 09:17:49;;;;;;;0.00;0.00;;;9.30;100.00;;;;;;4974726;28;20088;-70
2023/10/23 09:20:19;;;;;;;0.00;0.00;;;9.40;100.00;;;;;;4989331;28;20145;-70
2023/10/23 09:22:47;;;;;;;0.00;0.00;;;9.50;100.00;;;;;;4988118;28;20050;-70
2023/10/23 09:25:22;;;;;;;0.00;0.00;;;9.50;100.00;;;;;;4984094;28;20054;-70
2023/10/23 09:27:50;;;;;;;0.00;0.00;;;9.60;100.00;;;;;;4985081;28;20683;-70
2023/10/23 09:30:21;;;;;;;0.00;0.00;;;9.70;100.00;;;;;;4995070;28;20099;-70
2023/10/23 09:32:53;;;;;;;0.00;0.00;;;9.80;100.00;;;;;;4985404;28;20133;-70
2023/10/23 09:35:26;;;;;;;0.00;0.00;;;9.80;100.00;;;;;;4985823;28;20046;-70
2023/10/23 09:37:52;;;;;;;0.00;0.00;;;9.90;100.00;;;;;;4985387;28;20115;-70
2023/10/23 09:40:19;;;;;;;0.00;0.00;;;9.90;100.00;;;;;;4984816;28;20074;-70
2023/10/23 09:42:46;;;;;;;0.00;0.00;;;10.00;100.00;;;;;;4984621;28;20042;-69
2023/10/23 09:45:15;;;;;;;0.00;0.00;;;10.10;100.00;;;;;;4984308;28;20042;-70
2023/10/23 09:47:42;;;;;;;0.00;0.00;;;10.20;100.00;;;;;;4983623;28;20778;-70
2023/10/23 09:50:09;;;;;;;0.00;0.00;;;10.30;100.00;;;;;;4987651;28;20050;-70
2023/10/23 09:52:38;;;;;;;0.00;0.00;;;10.40;100.00;;;;;;4962629;28;20082;-70
2023/10/23 09:55:09;;;;;;;0.00;0.00;;;10.50;100.00;;;;;;4985699;28;20129;-70
2023/10/23 09:57:38;;;;;;;0.00;0.00;;;10.70;100.00;;;;;;4988581;28;20676;-70
2023/10/23 10:00:16;;;;;;;0.00;0.00;;;10.90;100.00;;;;;;4980838;28;20766;-70
2023/10/23 10:02:45;;;;;;;0.00;0.00;;;11.20;100.00;;;;;;4986544;28;20129;-70
2023/10/23 10:05:19;;;;;;;0.00;0.00;;;11.30;100.00;;;;;;4988145;28;20056;-70
2023/10/23 10:07:52;;;;;;;0.00;0.00;;;11.30;100.00;;;;;;4985993;28;20585;-72
2023/10/23 10:10:20;;;;;;;0.00;0.00;;;11.30;100.00;;;;;;4998842;28;20149;-72
2023/10/23 10:12:49;;;;;;;0.00;0.00;;;11.30;100.00;;;;;;4986602;28;20122;-71
2023/10/23 10:15:16;;;;;;;0.00;0.00;;;11.30;100.00;;;;;;4985460;28;20073;-72
2023/10/23 10:17:45;;;;;;;0.00;0.00;;;11.40;100.00;;;;;;4983313;28;20101;-71
2023/10/23 10:20:12;;;;;;;0.00;0.00;;;11.50;100.00;;;;;;4978668;28;20351;-71
2023/10/23 10:22:41;;;;;;;0.00;0.00;;;11.60;100.00;;;;;;4984263;28;20054;-72
2023/10/23 10:25:12;;;;;;;0.00;0.00;;;11.80;100.00;;;;;;4984846;28;20132;-72
2023/10/23 10:27:39;;;;;;;0.00;0.00;;;11.90;100.00;;;;;;4977772;28;20125;-72
2023/10/23 10:30:26;;;;;;;0.00;0.00;;;12.10;100.00;;;;;;4987433;28;20050;-72
2023/10/23 10:33:00;;;;;;;0.00;0.00;;;12.20;100.00;;;;;;4993458;28;20042;-72
2023/10/23 10:35:50;;;;;;;0.00;0.00;;;12.50;100.00;;;;;;4991256;28;20049;-72
2023/10/23 10:38:22;;;;;;;0.00;0.00;;;13.40;100.00;;;;;;4985475;28;20694;-72
2023/10/23 10:40:56;;;;;;;0.00;0.00;;;13.60;98.10;;;;;;4985173;28;20050;-72
2023/10/23 10:43:32;;;;;;;0.00;0.00;;;13.30;98.50;;;;;;4986090;28;20101;-71
2023/10/23 10:46:18;;;;;;;0.00;0.00;;;13.10;99.10;;;;;;4968045;28;20050;-72
2023/10/23 10:48:47;;;;;;;0.00;0.00;;;13.00;100.00;;;;;;4980957;28;20558;-72
2023/10/23 10:51:20;;;;;;;0.00;0.00;;;13.10;100.00;;;;;;4991401;28;20080;-72
2023/10/23 10:53:48;;;;;;;0.00;0.00;;;13.50;99.50;;;;;;4967112;28;20173;-72
2023/10/23 10:56:15;;;;;;;0.00;0.00;;;13.60;98.80;;;;;;4986608;28;20413;-72
2023/10/23 10:58:45;;;;;;;0.00;0.00;;;13.50;97.80;;;;;;4982833;28;20065;-72
2023/10/23 11:01:12;;;;;;;0.20;0.20;;;13.40;95.10;;;;;;4983962;28;20506;-72
2023/10/23 11:03:41;;;;;;;0.00;0.00;;;13.20;96.20;;;;;;4984474;28;20043;-72
2023/10/23 11:06:08;;;;;;;0.00;0.00;;;13.10;97.00;;;;;;4981918;28;20077;-72
2023/10/23 11:08:36;;;;;;;0.03;0.03;;;13.20;98.40;;;;;;4982675;28;20073;-72
2023/10/23 11:11:07;;;;;;;0.00;0.00;;;13.00;97.40;;;;;;4983985;28;20058;-72
2023/10/23 11:13:34;;;;;;;0.00;0.00;;;12.90;98.90;;;;;;4965855;28;20204;-72
2023/10/23 11:16:01;;;;;;;0.08;0.08;;;12.90;99.80;;;;;;4986469;28;20153;-72
2023/10/23 11:18:29;;;;;;;0.00;0.00;;;13.00;99.10;;;;;;4987136;28;20088;-72
2023/10/23 11:21:00;;;;;;;0.00;0.00;;;13.00;98.80;;;;;;4984222;28;20181;-73
2023/10/23 11:23:30;;;;;;;0.00;0.00;;;13.00;98.50;;;;;;4970511;28;20197;-70
2023/10/23 11:25:58;;;;;;;0.00;0.00;;;13.10;98.30;;;;;;4961504;28;20090;-72
2023/10/23 11:28:25;;;;;;;0.00;0.00;;;13.20;97.90;;;;;;4971708;28;20541;-71
2023/10/23 11:30:58;;;;;;;0.00;0.00;;;13.30;99.90;;;;;;4985398;28;20050;-71
2023/10/23 11:33:25;;;;;;;0.00;0.00;;;13.50;99.60;;;;;;4983983;28;20062;-72
2023/10/23 11:35:52;;;;;;;0.00;0.00;;;13.50;97.20;;;;;;4985953;28;20552;-71
2023/10/23 11:38:21;;;;;;;0.00;0.00;;;13.90;98.10;;;;;;4988153;28;20062;-71
2023/10/23 11:40:48;;;;;;;0.00;0.00;;;14.20;95.60;;;;;;4984917;28;20828;-74
2023/10/23 11:43:18;;;;;;;0.00;0.00;;;14.30;95.10;;;;;;4970943;28;20046;-73
2023/10/23 11:45:46;;;;;;;0.00;0.00;;;14.50;96.40;;;;;;4983497;28;20678;-75
2023/10/23 11:48:14;;;;;;;0.00;0.00;;;14.80;93.40;;;;;;4981529;28;20137;-73
2023/10/23 11:50:42;;;;;;;0.00;0.00;;;15.30;93.20;;;;;;4982338;28;20057;-74
2023/10/23 11:53:09;;;;;;;0.00;0.00;;;16.20;89.00;;;;;;4982387;28;20109;-75
2023/10/23 11:55:37;;;;;;;0.00;0.00;;;17.00;83.70;;;;;;4984631;28;20372;-74
2023/10/23 11:58:05;;;;;;;0.00;0.00;;;17.20;81.70;;;;;;4983877;28;20517;-74
2023/10/23 12:00:34;;;;;;;0.00;0.00;;;17.30;81.70;;;;;;4987537;28;20064;-74
2023/10/23 12:03:01;;;;;;;0.00;0.00;;;17.40;80.00;;;;;;4984062;28;20486;-73
2023/10/23 12:05:28;;;;;;;3.13;0.20;;;17.40;77.60;;;;;;4986397;28;20046;-74
2023/10/23 12:07:56;;;;;;;9.40;2.25;;;17.10;79.50;;;;;;4987265;28;20077;-74
2023/10/23 12:10:25;;;;;;;7.47;2.15;;;16.60;81.30;;;;;;4981885;28;20145;-74
2023/10/23 12:12:53;;;;;;;7.13;1.80;;;16.50;83.50;;;;;;4981593;28;20129;-73
2023/10/23 12:15:23;;;;;;;9.07;2.40;;;16.70;80.60;;;;;;4971541;28;20054;-74
2023/10/23 12:17:50;;;;;;;8.07;1.90;;;16.70;80.40;;;;;;4983512;28;20124;-73
2023/10/23 12:20:21;;;;;;;7.53;2.10;;;16.80;83.90;;;;;;4980131;28;20046;-70
2023/10/23 12:22:50;;;;;;;6.93;1.92;;;17.10;81.90;;;;;;4983808;28;20108;-72
2023/10/23 12:25:17;;;;;;;4.20;1.17;;;17.70;72.30;;;;;;4976332;28;20053;-71
2023/10/23 12:27:44;;;;;;;10.48;1.48;;;17.80;74.70;;;;;;4981502;28;20057;-71
2023/10/23 12:30:16;;;;;;;6.82;1.40;;;18.40;73.00;;;;;;4980619;28;20082;-75
2023/10/23 12:32:52;;;;;;;8.35;1.70;;;18.10;74.40;;;;;;4984786;28;20046;-75
2023/10/23 12:35:39;;;;;;;6.55;1.65;;;18.10;72.70;;;;;;4983104;28;20050;-75
2023/10/23 12:38:06;;;;;;;7.35;2.67;;;17.70;71.90;;;;;;4990590;28;20055;-75
2023/10/23 12:40:34;;;;;;;4.72;1.27;;;17.70;71.10;;;;;;4974642;28;20059;-75
2023/10/23 12:43:03;;;;;;;5.40;1.23;;;17.80;71.20;;;;;;4983105;28;20132;-76
2023/10/23 12:45:31;;;;;;;5.95;1.05;;;18.00;72.00;;;;;;4983271;28;20555;-75
2023/10/23 12:47:58;;;;;;;3.85;0.82;;;18.10;68.80;;;;;;4988836;28;20057;-76
2023/10/23 12:50:25;;;;;;;5.45;1.10;;;18.10;69.60;;;;;;4980302;28;20065;-76
2023/10/23 12:52:52;;;;;;;5.97;1.20;;;18.20;69.00;;;;;;4984452;28;20137;-76
2023/10/23 12:55:20;;;;;;;6.47;1.10;;;18.00;69.50;;;;;;4988066;28;20133;-76
2023/10/23 12:57:47;;;;;;;7.18;1.33;;;18.30;70.10;;;;;;4990634;28;20074;-75